Long Eaton, United Kingdom
Current Conditions -  °F | °C
As of 5:20 AM on Tuesday 27 Jan 2015 (Local Time) from EGNX Reporting Station
Broken Clouds Broken Clouds  
Wind Chill: 34°   Ceiling: 1800
Heat Index: 41°   Visibility: 6mi
Dew Point: 39°   Wind: 12mph
Humidity: 93%   Direction: 270°W
Pressure: 30.33"   Gusts: NA
Location:  52.9°N, 1.27°W
Report Text: EGNX 270520Z 27010KT 9999 FEW012 BKN018 05/04 Q1027
Loading
Personal Weather Stations






























Interactive Weather Map New forecast layout! Learn more

10-Day Weather Forecast

Advertisements
Track Severe Weather on mobile